.
WxDataArchive / Data Records for 2010-11-22
2010-11-21 November 2010 2010-11-23

Data Records for Monday, 22 November 2010

Time	Temp	Chill	HIndex	Humid	Dewpt	 Wind 	HiWind	WindDir	Rain 	Barom 
-----	----	-----	------	-----	-----	------	------	-------	-----	----- 
00:00	61.0	61.0	61.0	68	50.4	3	12	248	0.00	29.970 
00:05	60.9	60.9	60.9	69	50.7	3	6	248	0.00	29.970 
00:10	60.9	60.9	60.9	69	50.7	2	6	248	0.00	29.970 
00:15	60.9	60.9	60.9	69	50.7	2	6	248	0.00	29.965 
00:20	60.7	60.7	60.7	69	50.5	2	7	270	0.00	29.965 
00:25	60.7	60.7	60.7	69	50.5	2	5	248	0.00	29.965 
00:30	60.7	60.7	60.7	69	50.5	3	7	270	0.00	29.969 
00:35	60.7	60.7	60.7	68	50.1	2	5	225	0.00	29.969 
00:40	60.7	60.7	60.7	68	50.1	3	8	248	0.00	29.969 
00:45	60.7	60.7	60.7	68	50.1	2	9	248	0.00	29.967 
00:50	60.7	60.7	60.7	68	50.1	2	9	248	0.00	29.967 
00:55	60.7	60.7	60.7	69	50.5	2	7	225	0.00	29.967 
01:00	60.5	60.5	60.5	69	50.3	2	5	248	0.00	29.961 
01:05	60.5	60.5	60.5	69	50.3	2	7	248	0.00	29.961 
01:10	60.5	60.5	60.5	69	50.3	2	6	248	0.00	29.961 
01:15	60.4	60.4	60.4	69	50.2	3	9	248	0.00	29.960 
01:20	60.4	60.4	60.4	69	50.2	2	5	225	0.00	29.960 
01:25	60.4	60.4	60.4	70	50.6	2	6	248	0.00	29.960 
01:30	60.4	60.4	60.4	70	50.6	2	6	248	0.00	29.959 
01:35	60.2	60.2	60.2	70	50.4	2	6	248	0.00	29.959 
01:40	60.2	60.2	60.2	70	50.4	2	7	225	0.00	29.959 
01:45	60.1	60.1	60.1	71	50.7	2	5	292	0.00	29.955 
01:50	60.1	60.1	60.1	71	50.7	2	6	225	0.00	29.955 
01:55	60.1	60.1	60.1	71	50.7	2	5	248	0.00	29.955 
02:00	60.1	60.1	60.1	72	51.0	2	8	225	0.00	29.955 
02:05	60.1	60.1	60.1	72	51.0	2	6	248	0.00	29.955 
02:10	60.2	60.2	60.2	72	51.1	2	6	248	0.00	29.955 
02:15	60.2	60.2	60.2	73	51.5	2	9	248	0.00	29.956 
02:20	60.2	60.2	60.2	73	51.5	2	7	270	0.00	29.956 
02:25	60.1	60.1	60.1	73	51.4	2	6	225	0.00	29.956 
02:30	59.9	59.9	59.9	74	51.6	2	5	248	0.00	29.946 
02:35	59.9	59.9	59.9	74	51.6	2	6	270	0.00	29.946 
02:40	60.1	60.1	60.1	74	51.8	2	6	248	0.00	29.946 
02:45	60.1	60.1	60.1	75	52.1	2	5	248	0.00	29.943 
02:50	59.9	59.9	59.9	76	52.3	2	4	248	0.00	29.943 
02:55	59.9	59.9	59.9	76	52.3	2	6	248	0.00	29.943 
03:00	59.9	59.9	59.9	76	52.3	2	9	248	0.00	29.945 
03:05	59.9	59.9	59.9	76	52.3	2	7	248	0.00	29.945 
03:10	59.9	59.9	59.9	76	52.3	3	9	248	0.00	29.945 
03:15	60.1	60.1	60.1	76	52.5	2	5	248	0.00	29.945 
03:20	59.9	59.9	59.9	77	52.7	2	6	225	0.00	29.945 
03:25	59.8	59.8	59.8	77	52.6	1	5	248	0.00	29.945 
03:30	59.6	59.6	59.6	78	52.7	2	6	248	0.00	29.941 
03:35	59.6	59.6	59.6	78	52.7	1	7	248	0.00	29.941 
03:40	59.6	59.6	59.6	79	53.1	1	5	248	0.00	29.941 
03:45	59.6	59.6	59.6	80	53.4	2	7	248	0.00	29.937 
03:50	59.3	59.3	59.3	81	53.5	2	9	248	0.00	29.937 
03:55	59.3	59.3	59.3	81	53.5	2	7	248	0.00	29.937 
04:00	59.2	59.2	59.2	82	53.7	2	5	248	0.00	29.938 
04:05	59.3	59.3	59.3	82	53.8	2	6	248	0.00	29.938 
04:10	59.3	59.3	59.3	82	53.8	2	5	248	0.00	29.938 
04:15	59.3	59.3	59.3	82	53.8	2	7	248	0.00	29.938 
04:20	59.3	59.3	59.3	82	53.8	1	5	248	0.00	29.938 
04:25	59.3	59.3	59.3	82	53.8	2	7	248	0.00	29.938 
04:30	59.3	59.3	59.3	82	53.8	1	5	248	0.00	29.937 
04:35	59.5	59.5	59.5	82	54.0	2	6	248	0.00	29.937 
04:40	59.5	59.5	59.5	82	54.0	2	6	248	0.00	29.937 
04:45	59.6	59.6	59.6	82	54.1	2	6	248	0.00	29.936 
04:50	59.6	59.6	59.6	82	54.1	2	6	248	0.00	29.936 
04:55	59.8	59.8	59.8	82	54.3	1	9	248	0.00	29.936 
05:00	59.9	59.9	59.9	82	54.4	2	9	248	0.00	29.941 
05:05	59.9	59.9	59.9	82	54.4	2	10	248	0.00	29.941 
05:10	60.1	60.1	60.1	82	54.6	2	5	225	0.00	29.941 
05:15	60.1	60.1	60.1	83	54.9	2	6	248	0.00	29.943 
05:20	60.2	60.2	60.2	83	55.0	2	9	248	0.00	29.943 
05:25	60.2	60.2	60.2	83	55.0	3	11	248	0.00	29.943 
05:30	60.4	60.4	60.4	83	55.2	2	9	248	0.00	29.946 
05:35	60.2	60.2	60.2	83	55.0	2	7	248	0.00	29.946 
05:40	60.2	60.2	60.2	83	55.0	2	6	248	0.00	29.946 
05:45	60.2	60.2	60.2	84	55.3	2	6	248	0.01	29.949 
05:50	59.9	59.9	59.9	85	55.4	2	5	270	0.03	29.949 
05:55	59.6	59.6	59.6	87	55.7	2	6	248	0.01	29.949 
06:00	59.3	59.3	59.3	88	55.7	2	5	248	0.01	29.946 
06:05	59.2	59.2	59.2	88	55.6	2	6	270	0.00	29.946 
06:10	59.2	59.2	59.2	89	56.0	2	10	248	0.00	29.946 
06:15	59.0	59.0	59.0	89	55.8	3	9	248	0.01	29.941 
06:20	59.0	59.0	59.0	89	55.8	2	10	248	0.00	29.941 
06:25	59.0	59.0	59.0	90	56.1	2	9	270	0.00	29.941 
06:30	58.9	58.9	58.9	90	56.0	2	7	248	0.00	29.939 
06:35	58.9	58.9	58.9	90	56.0	2	5	248	0.00	29.939 
06:40	58.9	58.9	58.9	91	56.3	2	10	248	0.02	29.939 
06:45	58.7	58.7	58.7	91	56.1	2	5	248	0.01	29.940 
06:50	58.7	58.7	58.7	92	56.4	2	7	248	0.01	29.940 
06:55	58.7	58.7	58.7	92	56.4	2	5	248	0.00	29.940 
07:00	58.6	58.6	58.6	92	56.3	1	5	248	0.00	29.941 
07:05	58.6	58.6	58.6	92	56.3	1	3	248	0.00	29.941 
07:10	58.4	58.4	58.4	92	56.1	2	6	248	0.00	29.941 
07:15	58.4	58.4	58.4	93	56.4	1	4	225	0.01	29.942 
07:20	58.4	58.4	58.4	93	56.4	1	5	248	0.01	29.942 
07:25	58.4	58.4	58.4	93	56.4	1	5	22	0.00	29.942 
07:30	58.4	58.4	58.4	93	56.4	1	3	248	0.00	29.942 
07:35	58.3	58.3	58.3	93	56.3	0	4	270	0.00	29.942 
07:40	58.3	58.3	58.3	93	56.3	1	4	270	0.00	29.942 
07:45	58.3	58.3	58.3	93	56.3	1	4	270	0.01	29.941 
07:50	58.3	58.3	58.3	94	56.6	1	4	270	0.00	29.941 
07:55	58.3	58.3	58.3	94	56.6	1	5	248	0.00	29.941 
08:00	58.3	58.3	58.3	94	56.6	1	4	225	0.00	29.939 
08:05	58.3	58.3	58.3	94	56.6	1	3	202	0.01	29.939 
08:10	58.1	58.1	58.1	94	56.4	1	4	292	0.00	29.939 
08:15	58.1	58.1	58.1	94	56.4	1	5	248	0.00	29.937 
08:20	58.1	58.1	58.1	94	56.4	2	6	248	0.00	29.937 
08:25	58.1	58.1	58.1	94	56.4	1	4	248	0.00	29.937 
08:30	58.1	58.1	58.1	94	56.4	1	6	248	0.00	29.935 
08:35	58.3	58.3	58.3	94	56.6	1	4	248	0.00	29.935 
08:40	58.3	58.3	58.3	94	56.6	1	5	270	0.00	29.935 
08:45	58.3	58.3	58.3	94	56.6	1	4	248	0.00	29.935 
08:50	58.3	58.3	58.3	94	56.6	1	4	315	0.00	29.935 
08:55	58.3	58.3	58.3	94	56.6	1	6	248	0.00	29.935 
09:00	58.3	58.3	58.3	94	56.6	1	5	270	0.01	29.936 
09:05	58.4	58.4	58.4	94	56.7	2	5	248	0.00	29.936 
09:10	58.4	58.4	58.4	94	56.7	1	5	248	0.00	29.936 
09:15	58.4	58.4	58.4	94	56.7	2	9	270	0.01	29.931 
09:20	58.4	58.4	58.4	93	56.4	2	6	248	0.00	29.931 
09:25	58.4	58.4	58.4	93	56.4	2	6	248	0.00	29.931 
09:30	58.6	58.6	58.6	93	56.6	1	3	270	0.00	29.930 
09:35	58.6	58.6	58.6	93	56.6	2	5	292	0.00	29.930 
09:40	58.6	58.6	58.6	93	56.6	1	5	248	0.00	29.930 
09:45	58.6	58.6	58.6	93	56.6	2	5	270	0.00	29.926 
09:50	58.7	58.7	58.7	93	56.7	2	7	248	0.00	29.926 
09:55	58.7	58.7	58.7	92	56.4	2	7	90	0.00	29.926 
10:00	58.9	58.9	58.9	92	56.6	3	7	248	0.00	29.927 
10:05	59.0	59.0	59.0	92	56.7	1	6	270	0.00	29.927 
10:10	59.2	59.2	59.2	91	56.6	2	6	270	0.00	29.927 
10:15	59.3	59.3	59.3	90	56.4	2	6	225	0.00	29.925 
10:20	59.5	59.5	59.5	89	56.3	2	6	248	0.00	29.925 
10:25	59.5	59.5	59.5	88	55.9	2	7	248	0.00	29.925 
10:30	59.6	59.6	59.6	88	56.0	2	6	248	0.00	29.925 
10:35	59.6	59.6	59.6	87	55.7	2	6	270	0.00	29.925 
10:40	59.8	59.8	59.8	87	55.9	3	10	248	0.00	29.925 
10:45	59.8	59.8	59.8	87	55.9	2	9	225	0.00	29.932 
10:50	59.8	59.8	59.8	86	55.6	2	5	270	0.00	29.932 
10:55	59.9	59.9	59.9	86	55.7	2	7	248	0.00	29.932 
11:00	59.9	59.9	59.9	85	55.4	3	6	248	0.00	29.927 
11:05	59.9	59.9	59.9	85	55.4	3	7	248	0.00	29.927 
11:10	59.9	59.9	59.9	85	55.4	2	6	248	0.00	29.927 
11:15	60.1	60.1	60.1	85	55.6	2	5	248	0.00	29.923 
11:20	60.1	60.1	60.1	85	55.6	2	6	248	0.00	29.923 
11:25	60.1	60.1	60.1	85	55.6	2	5	292	0.00	29.923 
11:30	60.1	60.1	60.1	85	55.6	2	5	292	0.00	29.919 
11:35	60.2	60.2	60.2	85	55.7	1	4	248	0.00	29.919 
11:40	60.2	60.2	60.2	85	55.7	2	7	248	0.00	29.919 
11:45	60.4	60.4	60.4	84	55.5	2	5	248	0.00	29.910 
11:50	60.5	60.5	60.5	84	55.6	2	6	248	0.00	29.910 
11:55	60.7	60.7	60.7	83	55.5	3	7	248	0.00	29.910 
12:00	60.9	60.9	60.9	83	55.7	2	9	248	0.00	29.907 
12:05	60.9	60.9	60.9	82	55.4	3	6	248	0.00	29.907 
12:10	60.9	60.9	60.9	82	55.4	2	11	248	0.00	29.907 
12:15	61.0	61.0	61.0	82	55.5	2	6	248	0.00	29.900 
12:20	61.0	61.0	61.0	82	55.5	3	10	248	0.00	29.900 
12:25	60.9	60.9	60.9	82	55.4	2	6	248	0.00	29.900 
12:30	60.9	60.9	60.9	83	55.7	2	7	248	0.00	29.892 
12:35	60.9	60.9	60.9	83	55.7	1	5	248	0.00	29.892 
12:40	61.0	61.0	61.0	83	55.8	1	4	248	0.00	29.892 
12:45	61.2	61.2	61.2	82	55.7	2	6	248	0.00	29.887 
12:50	61.3	61.3	61.3	82	55.8	1	6	225	0.00	29.887 
12:55	61.6	61.6	61.6	81	55.7	1	5	248	0.00	29.887 
13:00	62.0	62.0	62.0	81	56.1	2	8	248	0.00	29.879 
13:05	62.3	62.3	62.3	81	56.4	2	6	248	0.00	29.879 
13:10	62.6	62.6	62.6	80	56.3	3	7	248	0.00	29.879 
13:15	62.7	62.7	62.7	79	56.1	3	9	248	0.00	29.876 
13:20	63.1	63.1	63.1	78	56.1	3	8	248	0.00	29.876 
13:25	63.2	63.2	63.2	78	56.2	4	12	225	0.00	29.876 
13:30	63.4	63.4	63.4	77	56.1	3	9	248	0.00	29.874 
13:35	63.5	63.5	63.5	77	56.2	3	11	248	0.00	29.874 
13:40	63.5	63.5	63.5	77	56.2	4	9	248	0.00	29.874 
13:45	63.7	63.7	63.7	77	56.3	3	9	248	0.00	29.869 
13:50	63.7	63.7	63.7	76	56.0	3	10	270	0.00	29.869 
13:55	63.9	63.9	63.9	75	55.8	5	12	248	0.00	29.869 
14:00	64.0	64.0	64.0	75	55.9	4	10	248	0.00	29.863 
14:05	64.0	64.0	64.0	74	55.5	4	13	248	0.00	29.863 
14:10	64.2	64.2	64.2	73	55.4	4	10	248	0.00	29.863 
14:15	64.2	64.2	64.2	73	55.4	2	5	248	0.00	29.858 
14:20	64.3	64.3	64.3	73	55.5	3	7	248	0.00	29.858 
14:25	64.3	64.3	64.3	73	55.5	2	7	248	0.00	29.858 
14:30	64.3	64.3	64.3	73	55.5	2	5	248	0.00	29.859 
14:35	64.5	64.5	64.5	73	55.6	2	6	248	0.00	29.859 
14:40	64.5	64.5	64.5	74	56.0	2	5	248	0.00	29.859 
14:45	64.5	64.5	64.5	74	56.0	2	10	225	0.00	29.856 
14:50	64.7	64.7	64.7	73	55.8	3	7	248	0.00	29.856 
14:55	64.8	64.8	64.8	73	55.9	2	7	248	0.00	29.856 
15:00	65.0	65.0	65.0	72	55.7	2	7	248	0.00	29.847 
15:05	65.2	65.2	65.2	71	55.6	3	9	225	0.00	29.847 
15:10	65.3	65.3	65.3	69	54.9	4	11	248	0.00	29.847 
15:15	65.3	65.3	65.3	69	54.9	4	9	248	0.00	29.844 
15:20	65.3	65.3	65.3	68	54.5	4	10	225	0.00	29.844 
15:25	65.3	65.3	65.3	68	54.5	4	12	270	0.00	29.844 
15:30	65.3	65.3	65.3	68	54.5	4	14	248	0.00	29.842 
15:35	65.5	65.5	65.5	67	54.2	5	13	248	0.00	29.842 
15:40	65.5	65.5	65.5	67	54.2	5	15	248	0.00	29.842 
15:45	65.5	65.5	65.5	67	54.2	6	13	270	0.00	29.844 
15:50	65.5	65.5	65.5	67	54.2	4	11	248	0.00	29.844 
15:55	65.3	65.3	65.3	67	54.1	3	10	225	0.00	29.844 
16:00	65.3	65.3	65.3	67	54.1	3	10	225	0.00	29.840 
16:05	65.2	65.2	65.2	68	54.4	3	11	248	0.00	29.840 
16:10	65.2	65.2	65.2	68	54.4	3	13	248	0.00	29.840 
16:15	65.0	65.0	65.0	68	54.2	2	7	248	0.00	29.833 
16:20	65.0	65.0	65.0	69	54.6	2	5	248	0.00	29.833 
16:25	64.8	64.8	64.8	69	54.4	2	7	292	0.00	29.833 
16:30	64.8	64.8	64.8	70	54.8	2	6	248	0.00	29.827 
16:35	64.7	64.7	64.7	70	54.7	3	9	248	0.00	29.827 
16:40	64.5	64.5	64.5	70	54.5	2	7	270	0.00	29.827 
16:45	64.3	64.3	64.3	71	54.7	2	6	270	0.00	29.817 
16:50	64.0	64.0	64.0	71	54.4	1	5	292	0.00	29.817 
16:55	63.9	63.9	63.9	72	54.7	2	5	248	0.00	29.817 
17:00	63.7	63.7	63.7	72	54.5	2	5	270	0.00	29.812 
17:05	63.5	63.5	63.5	73	54.7	1	6	68	0.00	29.812 
17:10	63.4	63.4	63.4	73	54.6	2	6	270	0.00	29.812 
17:15	63.4	63.4	63.4	73	54.6	2	6	248	0.00	29.812 
17:20	63.4	63.4	63.4	73	54.6	2	6	90	0.00	29.812 
17:25	63.5	63.5	63.5	73	54.7	2	7	225	0.00	29.812 
17:30	63.4	63.4	63.4	73	54.6	2	7	248	0.00	29.812 
17:35	63.4	63.4	63.4	73	54.6	2	9	248	0.00	29.812 
17:40	63.4	63.4	63.4	73	54.6	2	6	248	0.00	29.812 
17:45	63.4	63.4	63.4	73	54.6	2	5	270	0.00	29.821 
17:50	63.4	63.4	63.4	73	54.6	2	10	248	0.00	29.821 
17:55	63.4	63.4	63.4	73	54.6	2	8	270	0.00	29.821 
18:00	63.5	63.5	63.5	73	54.7	2	6	248	0.00	29.823 
18:05	63.7	63.7	63.7	72	54.5	2	9	270	0.00	29.823 
18:10	64.0	64.0	64.0	72	54.8	3	7	248	0.00	29.823 
18:15	64.2	64.2	64.2	71	54.6	3	12	248	0.00	29.825 
18:20	64.3	64.3	64.3	71	54.7	3	10	270	0.00	29.825 
18:25	64.3	64.3	64.3	71	54.7	2	6	225	0.00	29.825 
18:30	64.3	64.3	64.3	71	54.7	2	5	270	0.00	29.828 
18:35	64.5	64.5	64.5	70	54.5	2	5	270	0.00	29.828 
18:40	64.7	64.7	64.7	70	54.7	3	11	225	0.00	29.828 
18:45	64.8	64.8	64.8	70	54.8	2	10	248	0.00	29.828 
18:50	65.0	65.0	65.0	69	54.6	3	10	315	0.00	29.828 
18:55	65.0	65.0	65.0	69	54.6	2	6	248	0.00	29.828 
19:00	65.0	65.0	65.0	69	54.6	2	4	248	0.00	29.821 
19:05	65.0	65.0	65.0	69	54.6	1	6	248	0.00	29.821 
19:10	64.8	64.8	64.8	70	54.8	1	6	225	0.00	29.821 
19:15	64.8	64.8	64.8	70	54.8	2	10	248	0.00	29.813 
19:20	64.7	64.7	64.7	70	54.7	1	5	270	0.00	29.813 
19:25	64.7	64.7	64.7	70	54.7	1	4	90	0.00	29.813 
19:30	64.7	64.7	64.7	70	54.7	2	9	270	0.00	29.803 
19:35	64.8	64.8	64.8	69	54.4	2	6	248	0.00	29.803 
19:40	64.8	64.8	64.8	69	54.4	2	11	225	0.00	29.803 
19:45	64.7	64.7	64.7	69	54.3	1	4	112	0.00	29.794 
19:50	64.7	64.7	64.7	69	54.3	2	5	292	0.00	29.794 
19:55	64.7	64.7	64.7	70	54.7	2	5	270	0.00	29.794 
20:00	64.7	64.7	64.7	70	54.7	2	6	248	0.00	29.782 
20:05	64.7	64.7	64.7	70	54.7	2	10	112	0.00	29.782 
20:10	64.7	64.7	64.7	69	54.3	2	7	292	0.00	29.782 
20:15	64.7	64.7	64.7	69	54.3	2	6	112	0.00	29.773 
20:20	64.5	64.5	64.5	70	54.5	2	7	45	0.00	29.773 
20:25	64.5	64.5	64.5	70	54.5	2	5	90	0.00	29.773 
20:30	64.3	64.3	64.3	70	54.3	2	6	90	0.00	29.770 
20:35	64.2	64.2	64.2	70	54.2	1	3	158	0.00	29.770 
20:40	64.0	64.0	64.0	70	54.0	2	6	248	0.00	29.770 
20:45	64.0	64.0	64.0	70	54.0	1	4	292	0.00	29.764 
20:50	64.0	64.0	64.0	70	54.0	1	6	270	0.00	29.764 
20:55	63.9	63.9	63.9	70	53.9	1	4	90	0.00	29.764 
21:00	63.9	63.9	63.9	70	53.9	2	5	292	0.00	29.753 
21:05	64.0	64.0	64.0	70	54.0	1	6	270	0.00	29.753 
21:10	64.0	64.0	64.0	70	54.0	1	4	270	0.00	29.753 
21:15	64.0	64.0	64.0	70	54.0	1	6	315	0.00	29.746 
21:20	64.0	64.0	64.0	70	54.0	2	7	90	0.00	29.746 
21:25	64.2	64.2	64.2	70	54.2	2	5	90	0.00	29.746 
21:30	64.2	64.2	64.2	71	54.6	2	7	68	0.00	29.733 
21:35	64.2	64.2	64.2	71	54.6	2	6	112	0.00	29.733 
21:40	64.2	64.2	64.2	71	54.6	2	7	315	0.00	29.733 
21:45	64.2	64.2	64.2	71	54.6	2	6	90	0.00	29.718 
21:50	64.3	64.3	64.3	70	54.3	2	8	45	0.00	29.718 
21:55	64.5	64.5	64.5	71	54.9	2	7	270	0.00	29.718 
22:00	63.9	63.9	63.9	74	55.4	3	12	68	0.01	29.704 
22:05	63.2	63.2	63.2	77	55.9	2	9	248	0.01	29.704 
22:10	62.7	62.7	62.7	78	55.7	2	6	270	0.01	29.704 
22:15	62.4	62.4	62.4	79	55.8	2	10	90	0.01	29.703 
22:20	62.1	62.1	62.1	80	55.9	2	4	270	0.00	29.703 
22:25	62.1	62.1	62.1	80	55.9	2	6	45	0.00	29.703 
22:30	62.1	62.1	62.1	80	55.9	2	7	248	0.01	29.699 
22:35	62.0	62.0	62.0	80	55.8	2	5	248	0.00	29.699 
22:40	61.8	61.8	61.8	81	55.9	2	6	248	0.00	29.699 
22:45	61.6	61.6	61.6	82	56.0	3	6	270	0.00	29.692 
22:50	61.6	61.6	61.6	81	55.7	4	14	225	0.00	29.692 
22:55	61.6	61.6	61.6	82	56.0	3	11	248	0.02	29.692 
23:00	61.3	61.3	61.3	84	56.4	2	7	248	0.00	29.701 
23:05	61.0	61.0	61.0	84	56.1	3	7	248	0.01	29.701 
23:10	60.9	60.9	60.9	85	56.4	3	9	248	0.01	29.701 
23:15	60.5	60.5	60.5	87	56.6	4	11	248	0.02	29.730 
23:20	60.4	60.4	60.4	88	56.8	5	12	270	0.02	29.730 
23:25	60.1	60.1	60.1	89	56.8	2	6	270	0.05	29.730 
23:30	59.9	59.9	59.9	90	57.0	3	9	248	0.01	29.726 
23:35	59.8	59.8	59.8	91	57.2	4	7	248	0.00	29.726 
23:40	59.6	59.6	59.6	91	57.0	3	6	248	0.01	29.726 
23:45	59.6	59.6	59.6	92	57.3	2	6	248	0.01	29.721 
23:50	59.5	59.5	59.5	92	57.2	1	3	248	0.01	29.721 
23:55	59.3	59.3	59.3	92	57.0	1	4	248	0.00	29.721 

CoCoRaHS
IN-AL-39
A2 Web Hosting
Creative Commons License
GoDaddy
search engine by freefind advanced

loaded 2018-11-12 15:27:15 • last modified 2010-11-18 10:43:29
Privacy PolicyDisclaimer
• wx.awcolley.com is powered by PmWiki v.2002016 •
• all content (unless otherwise noted) © 2018 A W Colley